createdAt,value
2022-08-02T00:00:40.675Z,50.07
2022-08-02T00:02:44.264Z,50.11
2022-08-02T00:04:46.321Z,50.39
2022-08-02T00:06:48.090Z,50.19
2022-08-02T00:08:49.783Z,50.18
2022-08-02T00:10:51.575Z,50.20
2022-08-02T00:12:53.705Z,50.34
2022-08-02T00:14:57.128Z,50.24
2022-08-02T00:16:58.830Z,50.35
2022-08-02T00:19:00.862Z,50.33
2022-08-02T00:21:02.372Z,50.28
2022-08-02T00:23:04.049Z,50.91
2022-08-02T00:25:06.185Z,50.78
2022-08-02T00:27:09.629Z,50.90
2022-08-02T00:29:11.482Z,51.16
2022-08-02T00:31:13.187Z,51.15
2022-08-02T00:33:14.787Z,51.32
2022-08-02T00:35:16.447Z,51.57
2022-08-02T00:37:18.263Z,51.58
2022-08-02T00:39:33.368Z,51.27
2022-08-02T00:41:45.666Z,52.36
2022-08-02T00:43:48.217Z,51.57
2022-08-02T00:46:02.766Z,51.85
2022-08-02T00:48:06.991Z,51.62
2022-08-02T00:50:08.937Z,51.90
2022-08-02T00:52:10.725Z,51.68
2022-08-02T00:54:12.930Z,51.98
2022-08-02T00:56:14.472Z,52.14
2022-08-02T00:58:16.638Z,52.29
2022-08-02T01:00:18.422Z,52.44
2022-08-02T01:02:20.334Z,52.30
2022-08-02T01:04:29.755Z,52.54
2022-08-02T01:06:33.838Z,52.71
2022-08-02T01:08:35.471Z,52.74
2022-08-02T01:10:37.404Z,52.76
2022-08-02T01:12:39.330Z,52.85
2022-08-02T01:14:43.163Z,52.96
2022-08-02T01:17:06.281Z,53.73
2022-08-02T01:19:24.865Z,53.44
2022-08-02T01:21:38.899Z,53.09
2022-08-02T01:23:51.513Z,52.91
2022-08-02T01:25:59.145Z,53.06
2022-08-02T01:28:38.041Z,53.40
2022-08-02T01:30:43.103Z,52.92
2022-08-02T01:32:48.906Z,52.98
2022-08-02T01:35:00.092Z,53.20
2022-08-02T01:37:31.732Z,53.36
2022-08-02T01:39:36.076Z,53.05
2022-08-02T01:41:38.681Z,53.13
2022-08-02T01:43:43.873Z,53.22
2022-08-02T01:45:46.765Z,53.38
2022-08-02T01:47:50.509Z,53.23
2022-08-02T01:49:57.441Z,53.70
2022-08-02T01:52:20.084Z,53.91
2022-08-02T01:54:25.041Z,53.94
2022-08-02T01:56:27.170Z,54.17
2022-08-02T01:58:34.981Z,54.36
2022-08-02T02:00:40.167Z,54.43
2022-08-02T02:02:47.488Z,54.52
2022-08-02T02:04:51.417Z,54.28
2022-08-02T02:06:54.015Z,54.27
2022-08-02T02:08:58.144Z,54.45
2022-08-02T02:12:09.690Z,54.79
2022-08-02T02:13:33.397Z,54.77
2022-08-02T02:15:43.240Z,54.82
2022-08-02T02:17:53.054Z,54.84
2022-08-02T02:20:20.213Z,54.94
2022-08-02T02:22:22.224Z,54.65
2022-08-02T02:24:26.257Z,54.81
2022-08-02T02:26:31.624Z,54.79
2022-08-02T02:28:37.213Z,54.73
2022-08-02T02:30:41.540Z,54.52
2022-08-02T02:32:48.818Z,55.06
2022-08-02T02:34:51.751Z,54.79
2022-08-02T02:36:55.552Z,54.63
2022-08-02T02:39:11.617Z,55.25
2022-08-02T02:41:17.431Z,54.96
2022-08-02T02:43:21.548Z,55.00
2022-08-02T02:45:24.976Z,54.87
2022-08-02T02:47:40.792Z,54.59
2022-08-02T02:49:49.156Z,54.84
2022-08-02T02:51:52.141Z,55.14
2022-08-02T02:54:30.225Z,55.21
2022-08-02T02:56:18.618Z,55.38
2022-08-02T02:58:20.531Z,54.87
2022-08-02T03:00:49.776Z,55.04
2022-08-02T03:02:51.674Z,54.91
2022-08-02T03:04:57.235Z,55.16
2022-08-02T03:07:02.552Z,55.27
2022-08-02T03:09:06.084Z,55.31
2022-08-02T03:11:09.924Z,55.09
2022-08-02T03:13:12.841Z,55.53
2022-08-02T03:15:15.417Z,55.50
2022-08-02T03:17:16.927Z,55.63
2022-08-02T03:19:20.179Z,55.26
2022-08-02T03:21:22.141Z,55.57
2022-08-02T03:23:23.664Z,55.42
2022-08-02T03:25:25.411Z,55.72
2022-08-02T03:27:26.966Z,55.51
2022-08-02T03:29:31.491Z,55.64
2022-08-02T03:31:37.262Z,55.52
2022-08-02T03:33:39.177Z,55.67
2022-08-02T03:35:42.690Z,55.51
2022-08-02T03:37:45.617Z,55.79
2022-08-02T03:39:52.833Z,55.90
2022-08-02T03:41:55.825Z,55.71
2022-08-02T03:43:58.619Z,55.63
2022-08-02T03:46:01.982Z,55.68
2022-08-02T03:48:05.404Z,55.88
2022-08-02T03:50:27.016Z,56.14
2022-08-02T03:52:29.848Z,55.98
2022-08-02T03:54:34.579Z,55.91
2022-08-02T03:56:36.770Z,56.07
2022-08-02T03:58:38.419Z,56.26
2022-08-02T04:00:40.051Z,56.26
2022-08-02T04:02:41.598Z,56.17
2022-08-02T04:04:43.472Z,56.30
2022-08-02T04:06:45.053Z,56.63
2022-08-02T04:08:46.853Z,56.47
2022-08-02T04:11:07.382Z,56.55
2022-08-02T04:13:08.817Z,56.70
2022-08-02T04:15:13.696Z,57.04
2022-08-02T04:17:18.127Z,56.48
2022-08-02T04:19:29.162Z,57.23
2022-08-02T04:21:48.785Z,57.16
2022-08-02T04:23:56.155Z,56.73
2022-08-02T04:26:00.602Z,57.27
2022-08-02T04:28:17.732Z,56.87
2022-08-02T04:30:22.009Z,57.12
2022-08-02T04:32:24.605Z,57.15
2022-08-02T04:34:26.424Z,57.26
2022-08-02T04:36:31.673Z,57.59
2022-08-02T04:38:33.656Z,57.61
2022-08-02T04:40:35.523Z,57.69
2022-08-02T04:42:37.437Z,57.88
2022-08-02T04:44:39.101Z,57.66
2022-08-02T04:46:42.091Z,58.10
2022-08-02T04:48:43.903Z,58.20
2022-08-02T04:50:45.839Z,58.41
2022-08-02T04:52:47.481Z,58.06
2022-08-02T04:54:49.256Z,58.33
2022-08-02T04:56:50.733Z,58.17
2022-08-02T04:58:52.281Z,58.61
2022-08-02T05:00:54.055Z,58.45
2022-08-02T05:02:56.935Z,58.45
2022-08-02T05:04:58.536Z,58.50
2022-08-02T05:07:00.174Z,58.80
2022-08-02T05:09:01.844Z,58.56
2022-08-02T05:11:03.587Z,58.87
2022-08-02T05:13:05.795Z,58.96
2022-08-02T05:15:09.175Z,58.61
2022-08-02T05:17:14.888Z,58.85
2022-08-02T05:19:16.458Z,58.87
2022-08-02T05:21:18.348Z,58.73
2022-08-02T05:23:20.863Z,58.68
2022-08-02T05:25:22.580Z,58.78
2022-08-02T05:27:24.158Z,58.82
2022-08-02T05:29:25.727Z,59.00
2022-08-02T05:31:27.356Z,58.59
2022-08-02T05:33:28.976Z,58.55
2022-08-02T05:35:30.689Z,58.65
2022-08-02T05:37:33.089Z,58.67
2022-08-02T05:39:36.975Z,58.75
2022-08-02T05:41:56.821Z,58.78
2022-08-02T05:43:58.491Z,58.71
2022-08-02T05:46:00.286Z,58.89
2022-08-02T05:48:05.411Z,59.04
2022-08-02T05:50:08.521Z,58.98
2022-08-02T05:52:16.907Z,59.11
2022-08-02T05:54:39.434Z,59.07
2022-08-02T05:56:59.200Z,59.55
2022-08-02T05:59:32.472Z,59.38
2022-08-02T06:01:39.081Z,59.21
2022-08-02T06:03:51.419Z,59.57
2022-08-02T06:06:05.119Z,59.41
2022-08-02T06:08:10.321Z,58.81
2022-08-02T06:10:14.390Z,58.70
2022-08-02T06:12:18.503Z,58.52
2022-08-02T06:14:20.063Z,58.46
2022-08-02T06:16:32.421Z,58.45
2022-08-02T06:18:35.746Z,58.37
2022-08-02T06:20:37.406Z,58.38
2022-08-02T06:22:42.661Z,58.10
2022-08-02T06:24:45.662Z,57.93
2022-08-02T06:26:52.765Z,57.65
2022-08-02T06:28:56.091Z,57.59
2022-08-02T06:30:59.130Z,57.47
2022-08-02T06:33:01.139Z,57.41
2022-08-02T06:35:05.354Z,57.00
2022-08-02T06:37:18.367Z,57.00
2022-08-02T06:39:46.509Z,56.63
2022-08-02T06:41:50.028Z,56.32
2022-08-02T06:44:26.166Z,56.28
2022-08-02T06:46:55.932Z,55.89
2022-08-02T06:48:47.130Z,55.74
2022-08-02T06:50:48.852Z,55.86
2022-08-02T06:52:50.442Z,55.55
2022-08-02T06:54:51.913Z,55.25
2022-08-02T06:56:53.497Z,55.59
2022-08-02T06:58:55.469Z,55.31
2022-08-02T07:00:57.346Z,55.16
2022-08-02T07:02:58.971Z,54.90
2022-08-02T07:05:00.689Z,55.22
2022-08-02T07:07:02.282Z,54.83
2022-08-02T07:09:20.743Z,54.91
2022-08-02T07:11:24.120Z,55.02
2022-08-02T07:13:25.681Z,55.07
2022-08-02T07:15:27.424Z,55.54
2022-08-02T07:17:29.810Z,55.60
2022-08-02T07:19:37.861Z,55.09
2022-08-02T07:21:55.981Z,55.16
2022-08-02T07:24:01.050Z,55.32
2022-08-02T07:26:05.341Z,55.04
2022-08-02T07:28:16.820Z,54.91
2022-08-02T07:30:25.453Z,54.83
2022-08-02T07:32:30.409Z,54.13
2022-08-02T07:34:32.178Z,53.47
2022-08-02T07:36:33.988Z,53.33
2022-08-02T07:38:35.625Z,52.86
2022-08-02T07:40:39.405Z,52.92
2022-08-02T07:42:44.728Z,52.78
2022-08-02T07:44:49.225Z,52.33
2022-08-02T07:46:51.062Z,52.14
2022-08-02T07:48:54.815Z,52.11
2022-08-02T07:50:57.289Z,52.20
2022-08-02T07:52:58.854Z,52.12
2022-08-02T07:55:00.411Z,51.85
2022-08-02T07:57:02.086Z,52.45
2022-08-02T07:59:04.740Z,52.11
2022-08-02T08:01:06.372Z,52.22
2022-08-02T08:03:07.986Z,52.27
2022-08-02T08:05:09.943Z,52.04
2022-08-02T08:07:11.984Z,52.02
2022-08-02T08:09:13.554Z,51.90
2022-08-02T08:11:15.183Z,51.69
2022-08-02T08:13:16.903Z,51.21
2022-08-02T08:15:18.598Z,51.17
2022-08-02T08:17:20.410Z,51.06
2022-08-02T08:19:21.932Z,50.44
2022-08-02T08:21:43.415Z,50.59
2022-08-02T08:23:45.508Z,50.27
2022-08-02T08:25:47.749Z,49.91
2022-08-02T08:27:52.966Z,49.95
2022-08-02T08:29:54.700Z,49.70
2022-08-02T08:31:56.277Z,50.09
2022-08-02T08:33:57.799Z,49.63
2022-08-02T08:35:59.510Z,49.75
2022-08-02T08:38:07.711Z,49.39
2022-08-02T08:40:11.202Z,48.67
2022-08-02T08:42:13.359Z,48.77
2022-08-02T08:44:15.050Z,49.06
2022-08-02T08:46:26.124Z,48.96
2022-08-02T08:48:31.962Z,49.07
2022-08-02T08:50:36.578Z,49.16
2022-08-02T08:53:07.020Z,49.47
2022-08-02T08:55:12.473Z,49.43
2022-08-02T08:57:15.145Z,49.06
2022-08-02T08:59:17.756Z,48.96
2022-08-02T09:01:20.163Z,48.56
2022-08-02T09:03:21.780Z,49.12
2022-08-02T09:05:23.596Z,48.53
2022-08-02T09:07:25.305Z,48.73
2022-08-02T09:09:26.986Z,47.81
2022-08-02T09:11:28.676Z,47.01
2022-08-02T09:13:38.161Z,47.56
2022-08-02T09:15:55.258Z,47.57
2022-08-02T09:17:56.804Z,46.98
2022-08-02T09:20:08.608Z,46.36
2022-08-02T09:22:12.432Z,47.21
2022-08-02T09:24:22.927Z,47.14
2022-08-02T09:26:24.625Z,46.62
2022-08-02T09:28:28.719Z,46.82
2022-08-02T09:30:30.691Z,46.42
2022-08-02T09:32:45.471Z,46.44
2022-08-02T09:34:53.421Z,46.33
2022-08-02T09:36:55.037Z,45.94
2022-08-02T09:39:04.186Z,45.99
2022-08-02T09:41:19.616Z,45.35
2022-08-02T09:43:21.649Z,45.36
2022-08-02T09:45:30.414Z,44.75
2022-08-02T09:47:32.469Z,45.12
2022-08-02T09:49:46.833Z,44.16
2022-08-02T09:51:56.996Z,44.62
2022-08-02T09:54:08.262Z,44.35
2022-08-02T09:56:29.218Z,44.05
2022-08-02T09:58:39.169Z,43.42
2022-08-02T10:00:55.392Z,43.26
2022-08-02T10:03:08.361Z,42.64
2022-08-02T10:05:10.345Z,43.01
2022-08-02T10:07:15.936Z,42.89
2022-08-02T10:09:18.988Z,42.95
2022-08-02T10:11:22.865Z,42.58
2022-08-02T10:13:24.647Z,42.26
2022-08-02T10:15:27.638Z,42.09
2022-08-02T10:17:29.980Z,41.95
2022-08-02T10:20:01.290Z,42.02
2022-08-02T10:21:58.490Z,41.12
2022-08-02T10:24:06.519Z,41.28
2022-08-02T10:26:08.823Z,40.87
2022-08-02T10:28:16.318Z,40.36
2022-08-02T10:30:18.456Z,40.34
2022-08-02T10:32:24.625Z,39.94
2022-08-02T10:34:36.523Z,40.19
2022-08-02T10:36:40.955Z,39.80
2022-08-02T10:38:44.541Z,39.37
2022-08-02T10:40:51.272Z,39.67
2022-08-02T10:42:54.427Z,38.25
2022-08-02T10:45:15.071Z,37.92
2022-08-02T10:47:26.409Z,38.50
2022-08-02T10:49:43.958Z,38.97
2022-08-02T10:51:54.578Z,38.51
2022-08-02T10:54:09.145Z,37.86
2022-08-02T10:56:11.625Z,38.19
2022-08-02T10:58:18.251Z,38.34
2022-08-02T11:00:22.768Z,38.04
2022-08-02T11:02:45.112Z,36.91
2022-08-02T11:04:46.736Z,37.05
2022-08-02T11:07:09.489Z,36.03
2022-08-02T11:09:31.969Z,36.49
2022-08-02T11:12:04.441Z,36.86
2022-08-02T11:14:08.768Z,37.06
2022-08-02T11:16:12.044Z,35.29
2022-08-02T11:18:14.360Z,35.57
2022-08-02T11:20:17.493Z,34.67
2022-08-02T11:22:23.845Z,34.45
2022-08-02T11:24:32.606Z,34.79
2022-08-02T11:26:34.066Z,34.19
2022-08-02T11:28:35.771Z,34.71
2022-08-02T11:30:37.652Z,33.88
2022-08-02T11:32:39.476Z,34.51
2022-08-02T11:34:43.129Z,34.38
2022-08-02T11:36:49.906Z,34.68
2022-08-02T11:39:09.031Z,33.68
2022-08-02T11:41:46.557Z,33.62
2022-08-02T11:43:41.092Z,34.27
2022-08-02T11:45:42.646Z,33.96
2022-08-02T11:47:50.448Z,33.65
2022-08-02T11:49:52.092Z,33.85
2022-08-02T11:51:57.483Z,34.27
2022-08-02T11:53:59.180Z,34.86
2022-08-02T11:56:00.744Z,34.47
2022-08-02T11:58:05.744Z,34.42
2022-08-02T12:00:26.974Z,34.49
2022-08-02T12:02:33.757Z,34.81
2022-08-02T12:04:36.589Z,35.16
2022-08-02T12:06:39.446Z,35.24
2022-08-02T12:08:41.523Z,35.25
2022-08-02T12:10:56.117Z,35.15
2022-08-02T12:13:00.147Z,35.28
2022-08-02T12:15:01.847Z,35.12
2022-08-02T12:17:22.448Z,34.72
2022-08-02T12:19:29.445Z,34.99
2022-08-02T12:21:31.003Z,34.44
2022-08-02T12:23:32.972Z,34.69
2022-08-02T12:25:37.579Z,34.52
2022-08-02T12:27:41.743Z,34.88
2022-08-02T12:29:58.071Z,34.36
2022-08-02T12:32:01.603Z,34.52
2022-08-02T12:34:15.158Z,34.37
2022-08-02T12:36:27.844Z,34.49
2022-08-02T12:38:29.631Z,34.14
2022-08-02T12:40:33.138Z,32.75
2022-08-02T12:43:05.471Z,32.08
2022-08-02T12:45:07.650Z,32.50
2022-08-02T12:47:09.776Z,32.47
2022-08-02T12:49:18.463Z,32.92
2022-08-02T12:51:23.083Z,33.16
2022-08-02T12:53:31.582Z,32.20
2022-08-02T12:56:02.237Z,32.66
2022-08-02T12:58:02.925Z,32.49
2022-08-02T13:00:05.116Z,32.09
2022-08-02T13:02:11.404Z,31.88
2022-08-02T13:04:16.326Z,32.33
2022-08-02T13:08:41.598Z,32.80
2022-08-02T13:10:43.463Z,32.54
2022-08-02T13:12:45.916Z,32.24
2022-08-02T13:14:47.559Z,31.95
2022-08-02T13:16:49.335Z,32.34
2022-08-02T13:18:51.069Z,32.24
2022-08-02T13:20:52.891Z,32.12
2022-08-02T13:22:55.891Z,31.72
2022-08-02T13:25:06.269Z,31.50
2022-08-02T13:27:09.157Z,31.98
2022-08-02T13:29:12.406Z,31.81
2022-08-02T13:31:35.552Z,32.14
2022-08-02T13:33:35.717Z,32.22
2022-08-02T13:35:37.432Z,31.38
2022-08-02T13:37:41.817Z,31.16
2022-08-02T13:39:55.334Z,31.34
2022-08-02T13:42:06.009Z,31.32
2022-08-02T13:44:10.662Z,31.23
2022-08-02T13:46:13.267Z,31.15
2022-08-02T13:48:16.934Z,31.15
2022-08-02T13:50:20.047Z,31.47
2022-08-02T13:52:21.634Z,31.63
2022-08-02T13:54:23.152Z,31.73
2022-08-02T13:56:35.445Z,31.43
2022-08-02T13:58:37.610Z,31.24
2022-08-02T14:00:39.271Z,31.28
2022-08-02T14:02:40.892Z,31.03
2022-08-02T14:04:42.439Z,31.11
2022-08-02T14:06:44.159Z,31.01
2022-08-02T14:08:45.668Z,31.15
2022-08-02T14:10:48.044Z,31.37
2022-08-02T14:12:56.679Z,31.84
2022-08-02T14:14:58.391Z,31.88
2022-08-02T14:16:59.958Z,31.95
2022-08-02T14:19:05.234Z,32.23
2022-08-02T14:21:12.366Z,31.64
2022-08-02T14:23:14.136Z,30.99
2022-08-02T14:25:15.678Z,31.07
2022-08-02T14:27:17.286Z,30.94
2022-08-02T14:29:19.024Z,31.10
2022-08-02T14:31:20.689Z,30.65
2022-08-02T14:33:23.293Z,30.73
2022-08-02T14:35:25.326Z,30.91
2022-08-02T14:37:26.903Z,31.37
2022-08-02T14:39:28.478Z,31.54
2022-08-02T14:41:59.530Z,31.27
2022-08-02T14:44:06.087Z,31.32
2022-08-02T14:46:07.717Z,31.52
2022-08-02T14:48:11.389Z,31.75
2022-08-02T14:50:14.314Z,32.06
2022-08-02T14:52:16.208Z,31.93
2022-08-02T14:54:18.370Z,31.73
2022-08-02T14:56:20.633Z,31.54
2022-08-02T14:58:22.512Z,31.66
2022-08-02T15:00:24.058Z,31.55
2022-08-02T15:02:26.177Z,31.31
2022-08-02T15:04:28.321Z,31.76
2022-08-02T15:06:35.823Z,31.93
2022-08-02T15:08:37.685Z,31.88
2022-08-02T15:10:40.413Z,32.09
2022-08-02T15:12:42.210Z,32.29
2022-08-02T15:14:44.278Z,32.18
2022-08-02T15:16:56.121Z,32.14
2022-08-02T15:18:59.123Z,32.41
2022-08-02T15:21:00.816Z,32.41
2022-08-02T15:23:09.649Z,32.48
2022-08-02T15:25:14.438Z,32.23
2022-08-02T15:27:17.000Z,32.04
2022-08-02T15:29:19.271Z,32.12
2022-08-02T15:31:32.969Z,32.37
2022-08-02T15:33:35.397Z,32.51
2022-08-02T15:35:36.978Z,32.12
2022-08-02T15:37:41.481Z,32.23
2022-08-02T15:39:43.816Z,32.00
2022-08-02T15:41:45.351Z,31.90
2022-08-02T15:44:00.033Z,32.29
2022-08-02T15:46:03.398Z,32.34
2022-08-02T15:48:05.434Z,32.15
2022-08-02T15:50:07.315Z,32.31
2022-08-02T15:52:12.656Z,32.54
2022-08-02T15:54:14.617Z,32.61
2022-08-02T15:56:16.184Z,32.72
2022-08-02T15:58:24.060Z,32.54
2022-08-02T16:00:25.686Z,32.87
2022-08-02T16:02:27.352Z,32.82
2022-08-02T16:04:29.225Z,32.60
2022-08-02T16:06:30.790Z,32.70
2022-08-02T16:08:32.419Z,32.71
2022-08-02T16:10:34.356Z,32.80
2022-08-02T16:12:36.012Z,33.08
2022-08-02T16:14:37.594Z,32.77
2022-08-02T16:16:40.261Z,32.88
2022-08-02T16:18:41.823Z,32.84
2022-08-02T16:20:43.391Z,32.44
2022-08-02T16:22:45.039Z,32.43
2022-08-02T16:24:46.821Z,32.89
2022-08-02T16:26:48.691Z,33.08
2022-08-02T16:28:51.605Z,33.22
2022-08-02T16:31:09.952Z,33.13
2022-08-02T16:33:12.399Z,33.17
2022-08-02T16:35:13.980Z,33.30
2022-08-02T16:37:16.090Z,33.16
2022-08-02T16:39:17.913Z,33.20
2022-08-02T16:41:19.613Z,33.09
2022-08-02T16:43:21.898Z,32.85
2022-08-02T16:45:23.744Z,33.02
2022-08-02T16:47:36.996Z,33.09
2022-08-02T16:50:06.720Z,33.25
2022-08-02T16:52:09.535Z,33.22
2022-08-02T16:54:11.332Z,33.38
2022-08-02T16:56:12.876Z,32.88
2022-08-02T16:58:16.500Z,33.62
2022-08-02T17:00:19.115Z,33.60
2022-08-02T17:02:21.757Z,33.21
2022-08-02T17:04:27.345Z,33.60
2022-08-02T17:06:30.357Z,33.09
2022-08-02T17:08:32.450Z,33.82
2022-08-02T17:10:34.375Z,33.85
2022-08-02T17:12:36.735Z,33.68
2022-08-02T17:14:42.088Z,33.62
2022-08-02T17:16:57.338Z,33.68
2022-08-02T17:18:59.984Z,33.44
2022-08-02T17:21:04.071Z,33.66
2022-08-02T17:23:05.769Z,33.71
2022-08-02T17:25:11.135Z,33.40
2022-08-02T17:27:13.435Z,33.67
2022-08-02T17:29:18.129Z,33.31
2022-08-02T17:31:19.854Z,33.42
2022-08-02T17:33:31.235Z,33.76
2022-08-02T17:35:52.455Z,33.29
2022-08-02T17:38:00.112Z,33.50
2022-08-02T17:40:02.351Z,33.68
2022-08-02T17:42:06.071Z,33.83
2022-08-02T17:44:08.599Z,33.49
2022-08-02T17:46:11.428Z,33.66
2022-08-02T17:48:14.867Z,33.66
2022-08-02T17:50:17.155Z,33.85
2022-08-02T17:52:51.909Z,33.41
2022-08-02T17:54:42.772Z,33.77
2022-08-02T17:56:47.437Z,33.84
2022-08-02T17:58:51.989Z,33.89
2022-08-02T18:00:56.999Z,33.52
2022-08-02T18:02:59.966Z,33.44
2022-08-02T18:05:01.853Z,33.64
2022-08-02T18:07:09.628Z,33.99
2022-08-02T18:09:12.003Z,33.56
2022-08-02T18:11:13.677Z,34.03
2022-08-02T18:13:15.867Z,34.04
2022-08-02T18:15:20.037Z,34.00
2022-08-02T18:17:22.243Z,34.07
2022-08-02T18:19:23.851Z,34.14
2022-08-02T18:21:45.629Z,33.94
2022-08-02T18:23:48.605Z,33.93
2022-08-02T18:25:55.151Z,34.07
2022-08-02T18:27:57.203Z,34.32
2022-08-02T18:30:03.957Z,33.98
2022-08-02T18:32:11.599Z,34.32
2022-08-02T18:34:13.961Z,34.28
2022-08-02T18:36:24.959Z,34.31
2022-08-02T18:38:29.354Z,34.17
2022-08-02T18:40:31.718Z,34.34
2022-08-02T18:42:33.291Z,34.37
2022-08-02T18:44:34.777Z,34.62
2022-08-02T18:46:37.179Z,34.33
2022-08-02T18:48:47.704Z,34.39
2022-08-02T18:50:49.794Z,34.32
2022-08-02T18:52:51.414Z,34.41
2022-08-02T18:54:58.098Z,35.02
2022-08-02T18:57:00.792Z,34.92
2022-08-02T18:59:07.435Z,34.89
2022-08-02T19:03:31.158Z,34.90
2022-08-02T19:05:52.229Z,35.11
2022-08-02T19:07:55.470Z,35.22
2022-08-02T19:09:57.156Z,35.50
2022-08-02T19:11:59.752Z,35.84
2022-08-02T19:14:01.426Z,35.67
2022-08-02T19:16:03.258Z,35.92
2022-08-02T19:18:05.524Z,36.09
2022-08-02T19:20:09.364Z,35.98
2022-08-02T19:22:26.582Z,36.60
2022-08-02T19:24:28.570Z,36.34
2022-08-02T19:26:31.246Z,36.52
2022-08-02T19:28:32.935Z,36.52
2022-08-02T19:30:35.368Z,37.02
2022-08-02T19:32:41.976Z,36.85
2022-08-02T19:35:03.655Z,36.60
2022-08-02T19:37:21.715Z,36.63
2022-08-02T19:39:23.220Z,36.75
2022-08-02T19:41:28.960Z,36.98
2022-08-02T19:44:25.012Z,36.77
2022-08-02T19:46:07.250Z,36.86
2022-08-02T19:48:17.384Z,36.80
2022-08-02T19:50:19.487Z,36.98
2022-08-02T19:52:27.852Z,36.98
2022-08-02T19:54:35.777Z,37.49
2022-08-02T19:56:51.929Z,37.35
2022-08-02T19:58:58.733Z,37.16
2022-08-02T20:01:00.316Z,37.28
2022-08-02T20:03:02.922Z,37.51
2022-08-02T20:05:08.072Z,37.72
2022-08-02T20:07:49.831Z,37.38
2022-08-02T20:09:46.845Z,37.37
2022-08-02T20:11:54.041Z,37.22
2022-08-02T20:13:56.243Z,37.27
2022-08-02T20:15:59.422Z,37.11
2022-08-02T20:18:01.307Z,37.46
2022-08-02T20:20:03.988Z,37.49
2022-08-02T20:22:05.969Z,37.85
2022-08-02T20:24:10.007Z,37.74
2022-08-02T20:26:11.750Z,37.71
2022-08-02T20:28:14.348Z,37.76
2022-08-02T20:30:15.923Z,37.56
2022-08-02T20:32:23.894Z,37.99
2022-08-02T20:34:26.252Z,38.05
2022-08-02T20:36:28.679Z,38.15
2022-08-02T20:38:30.848Z,38.04
2022-08-02T20:40:33.133Z,38.51
2022-08-02T20:42:34.874Z,38.54
2022-08-02T20:44:36.499Z,38.27
2022-08-02T20:46:38.115Z,38.61
2022-08-02T20:48:40.082Z,38.96
2022-08-02T20:50:54.258Z,38.50
2022-08-02T20:52:56.096Z,38.42
2022-08-02T20:54:57.837Z,38.78
2022-08-02T20:56:59.488Z,38.70
2022-08-02T20:59:15.961Z,38.47
2022-08-02T21:01:17.823Z,38.67
2022-08-02T21:03:23.081Z,38.51
2022-08-02T21:05:26.811Z,38.76
2022-08-02T21:07:47.545Z,38.64
2022-08-02T21:12:19.341Z,39.20
2022-08-02T21:14:31.162Z,39.09
2022-08-02T21:16:32.892Z,38.85
2022-08-02T21:18:39.989Z,39.17
2022-08-02T21:20:42.128Z,38.82
2022-08-02T21:22:44.617Z,38.93
2022-08-02T21:24:46.368Z,38.97
2022-08-02T21:26:49.032Z,39.48
2022-08-02T21:28:51.388Z,39.27
2022-08-02T21:30:53.060Z,39.27
2022-08-02T21:32:54.946Z,39.73
2022-08-02T21:34:58.595Z,39.42
2022-08-02T21:37:00.095Z,40.03
2022-08-02T21:39:11.455Z,39.70
2022-08-02T21:41:13.063Z,40.13
2022-08-02T21:43:14.837Z,40.11
2022-08-02T21:45:20.010Z,40.52
2022-08-02T21:47:27.621Z,40.88
2022-08-02T21:50:09.342Z,40.98
2022-08-02T21:51:52.484Z,41.11
2022-08-02T21:54:17.541Z,40.72
2022-08-02T21:56:15.738Z,41.21
2022-08-02T21:58:20.050Z,40.99
2022-08-02T22:00:28.564Z,40.95
2022-08-02T22:02:31.264Z,41.25
2022-08-02T22:04:33.078Z,41.15
2022-08-02T22:06:35.047Z,41.19
2022-08-02T22:08:38.166Z,41.15
2022-08-02T22:10:58.735Z,41.15
2022-08-02T22:13:01.514Z,41.55
2022-08-02T22:15:05.723Z,41.74
2022-08-02T22:17:13.618Z,41.84
2022-08-02T22:19:15.784Z,41.80
2022-08-02T22:21:17.509Z,42.01
2022-08-02T22:23:22.638Z,41.90
2022-08-02T22:25:40.805Z,42.25
2022-08-02T22:28:34.750Z,42.63
2022-08-02T22:30:04.872Z,42.45
2022-08-02T22:32:07.447Z,42.71
2022-08-02T22:34:11.541Z,42.74
2022-08-02T22:36:38.715Z,42.85
2022-08-02T22:38:46.608Z,42.46
2022-08-02T22:40:50.511Z,43.06
2022-08-02T22:42:54.045Z,42.84
2022-08-02T22:44:57.220Z,43.04
2022-08-02T22:46:59.415Z,42.73
2022-08-02T22:49:09.106Z,42.70
2022-08-02T22:51:30.637Z,43.03
2022-08-02T22:53:35.556Z,43.17
2022-08-02T22:55:41.366Z,43.58
2022-08-02T22:57:56.365Z,43.38
2022-08-02T22:58:57.558Z,35.05
2022-08-02T22:59:01.945Z,38.85
2022-08-02T23:00:00.035Z,43.70
2022-08-02T23:02:05.337Z,43.45
2022-08-02T23:04:06.966Z,43.65
2022-08-02T23:06:09.044Z,43.85
2022-08-02T23:08:10.760Z,44.10
2022-08-02T23:10:12.564Z,44.11
2022-08-02T23:12:18.977Z,44.37
2022-08-02T23:14:20.703Z,44.18
2022-08-02T23:16:40.783Z,44.21
2022-08-02T23:19:02.254Z,44.39
2022-08-02T23:21:04.186Z,44.37
2022-08-02T23:23:11.464Z,44.47
2022-08-02T23:25:13.528Z,44.48
2022-08-02T23:27:15.209Z,44.36
2022-08-02T23:29:16.833Z,44.77
2022-08-02T23:31:37.539Z,45.00
2022-08-02T23:34:03.608Z,44.76
2022-08-02T23:36:01.594Z,44.94
2022-08-02T23:38:03.744Z,44.87
2022-08-02T23:40:06.255Z,44.93
2022-08-02T23:42:08.383Z,44.80
2022-08-02T23:44:14.760Z,44.90
2022-08-02T23:46:17.048Z,45.04
2022-08-02T23:48:18.570Z,44.89
2022-08-02T23:50:20.252Z,45.35
2022-08-02T23:52:21.801Z,45.36
2022-08-02T23:54:25.017Z,45.39
2022-08-02T23:56:26.670Z,45.21
2022-08-02T23:58:28.641Z,45.78
